Time;durP1;ratioP1;P1;durP2;ratioP2;P2;SDS_P1;SDS_P2;PMS_P1;PMS_P2;Temp;Humidity;BMP_temperature;BMP_pressure;BME280_temperature;BME280_humidity;BME280_pressure;Samples;Min_cycle;Max_cycle;Signal;HPM_P1;HPM_P2
2024/03/03 00:01:02;;;;;;;12.65;5.22;;;7.70;99.90;;;;;;5004266;28;20050;-67
2024/03/03 00:03:28;;;;;;;7.75;5.38;;;7.60;99.90;;;;;;5001270;28;20041;-66
2024/03/03 00:05:54;;;;;;;7.15;4.60;;;7.50;99.90;;;;;;5004012;28;20511;-67
2024/03/03 00:08:21;;;;;;;12.80;5.20;;;7.40;99.90;;;;;;5000137;28;20085;-66
2024/03/03 00:10:47;;;;;;;10.15;4.88;;;7.40;99.90;;;;;;5020514;28;20111;-66
2024/03/03 00:13:13;;;;;;;9.10;5.35;;;7.40;99.90;;;;;;5002928;28;20057;-67
2024/03/03 00:15:39;;;;;;;10.85;5.03;;;7.40;99.90;;;;;;5002087;28;20561;-67
2024/03/03 00:18:05;;;;;;;10.45;4.97;;;7.40;99.90;;;;;;5020872;28;20485;-67
2024/03/03 00:20:30;;;;;;;7.53;4.80;;;7.30;99.90;;;;;;5008814;28;20107;-67
2024/03/03 00:22:56;;;;;;;8.80;4.85;;;7.30;99.90;;;;;;5003188;28;20057;-67
2024/03/03 00:25:22;;;;;;;7.95;5.28;;;7.30;99.90;;;;;;5019358;28;20033;-67
2024/03/03 00:27:48;;;;;;;7.03;4.68;;;7.30;99.90;;;;;;5006458;28;20456;-67
2024/03/03 00:30:14;;;;;;;9.70;4.95;;;7.30;99.90;;;;;;5016856;28;20037;-66
2024/03/03 00:32:43;;;;;;;9.65;5.40;;;7.30;99.90;;;;;;5005418;28;20087;-67
2024/03/03 00:35:09;;;;;;;6.75;4.95;;;7.30;99.90;;;;;;5007983;28;20056;-67
2024/03/03 00:37:35;;;;;;;8.68;5.13;;;7.40;99.90;;;;;;5022423;28;20093;-67
2024/03/03 00:40:01;;;;;;;6.50;5.07;;;7.40;99.90;;;;;;4989794;28;20709;-66
2024/03/03 00:42:26;;;;;;;6.20;4.63;;;7.40;99.90;;;;;;5022511;28;20132;-67
2024/03/03 00:44:52;;;;;;;11.05;5.78;;;7.40;99.90;;;;;;5006564;28;20055;-66
2024/03/03 00:47:18;;;;;;;7.35;4.57;;;7.30;99.90;;;;;;4989176;28;20053;-67
2024/03/03 00:49:44;;;;;;;8.20;5.10;;;7.30;99.90;;;;;;5020250;28;20053;-67
2024/03/03 00:52:10;;;;;;;13.10;5.18;;;7.40;99.90;;;;;;5022997;28;20073;-67
2024/03/03 00:54:35;;;;;;;9.05;5.40;;;7.50;99.90;;;;;;5012837;28;20041;-66
2024/03/03 00:57:06;;;;;;;7.88;5.35;;;7.60;99.90;;;;;;5024458;28;20052;-67
2024/03/03 00:59:31;;;;;;;9.45;5.47;;;7.60;99.90;;;;;;5022614;28;20048;-67
2024/03/03 01:01:57;;;;;;;10.18;5.90;;;7.60;99.90;;;;;;5022640;28;20128;-67
2024/03/03 01:04:23;;;;;;;8.05;5.13;;;7.60;99.90;;;;;;5017497;28;20499;-66
2024/03/03 01:06:48;;;;;;;7.53;4.22;;;7.60;99.90;;;;;;5024209;28;20483;-67
2024/03/03 01:09:14;;;;;;;9.40;4.65;;;7.50;99.90;;;;;;5005191;28;20060;-66
2024/03/03 01:11:40;;;;;;;6.95;5.38;;;7.50;99.90;;;;;;5023083;28;20049;-66
2024/03/03 01:14:09;;;;;;;7.43;4.80;;;7.50;99.90;;;;;;5006034;28;20053;-67
2024/03/03 01:16:34;;;;;;;8.90;4.68;;;7.50;99.90;;;;;;5022919;28;20080;-67
2024/03/03 01:19:00;;;;;;;5.65;4.50;;;7.50;99.90;;;;;;4987440;28;20104;-67
2024/03/03 01:21:26;;;;;;;8.23;4.82;;;7.50;99.90;;;;;;5003772;28;20072;-66
2024/03/03 01:23:56;;;;;;;7.20;4.93;;;7.50;99.90;;;;;;5023856;28;20092;-67
2024/03/03 01:26:22;;;;;;;8.07;5.00;;;7.50;99.90;;;;;;5005346;28;20049;-68
2024/03/03 01:28:47;;;;;;;6.95;4.85;;;7.40;99.90;;;;;;4988198;28;20122;-67
2024/03/03 01:31:13;;;;;;;7.00;5.05;;;7.30;99.90;;;;;;5006942;28;20573;-66
2024/03/03 01:33:39;;;;;;;7.00;4.60;;;7.30;99.90;;;;;;5000730;28;20516;-67
2024/03/03 01:36:05;;;;;;;6.05;4.55;;;7.30;99.90;;;;;;5015500;28;20048;-67
2024/03/03 01:38:31;;;;;;;7.80;5.15;;;7.30;99.90;;;;;;4997691;28;20054;-66
2024/03/03 01:40:57;;;;;;;8.93;4.50;;;7.20;99.90;;;;;;5024095;28;20122;-67
2024/03/03 01:43:22;;;;;;;6.82;4.55;;;7.20;99.90;;;;;;5021235;28;20045;-67
2024/03/03 01:45:48;;;;;;;6.85;4.07;;;7.20;99.90;;;;;;5005574;28;20085;-67
2024/03/03 01:48:14;;;;;;;8.70;4.88;;;7.20;99.90;;;;;;5021175;28;20110;-67
2024/03/03 01:50:41;;;;;;;7.60;4.65;;;7.20;99.90;;;;;;5021081;28;20115;-66
2024/03/03 01:53:09;;;;;;;6.05;4.35;;;7.20;99.90;;;;;;5005530;28;20080;-67
2024/03/03 01:55:35;;;;;;;9.32;4.47;;;7.20;99.90;;;;;;4987676;28;20100;-67
2024/03/03 01:58:03;;;;;;;6.57;4.38;;;7.20;99.90;;;;;;5022511;28;20054;-66
2024/03/03 02:00:32;;;;;;;7.25;4.95;;;7.30;99.90;;;;;;5020800;28;20056;-67
2024/03/03 02:03:02;;;;;;;9.93;4.63;;;7.20;99.90;;;;;;5023100;28;20041;-66
2024/03/03 02:05:31;;;;;;;9.00;4.13;;;7.20;99.90;;;;;;5005491;28;20411;-66
2024/03/03 02:07:57;;;;;;;8.95;4.68;;;7.30;99.90;;;;;;5021376;28;20124;-66
2024/03/03 02:10:24;;;;;;;6.22;4.30;;;7.30;99.90;;;;;;5003814;28;20128;-67
2024/03/03 02:12:51;;;;;;;6.70;4.65;;;7.30;99.90;;;;;;5020339;28;20624;-66
2024/03/03 02:15:17;;;;;;;7.30;4.57;;;7.40;99.90;;;;;;5023987;28;20041;-66
2024/03/03 02:17:43;;;;;;;8.68;4.43;;;7.40;99.90;;;;;;4996439;28;20053;-67
2024/03/03 02:20:09;;;;;;;7.90;4.15;;;7.40;99.90;;;;;;5004380;28;20076;-66
2024/03/03 02:22:38;;;;;;;8.02;4.30;;;7.50;99.90;;;;;;4986422;28;20135;-67
2024/03/03 02:25:08;;;;;;;8.10;4.75;;;7.40;99.90;;;;;;5021363;28;20049;-67
2024/03/03 02:27:36;;;;;;;8.98;4.43;;;7.40;99.90;;;;;;5020909;28;20395;-67
2024/03/03 02:30:03;;;;;;;6.70;4.93;;;7.40;99.90;;;;;;5019352;28;20499;-67
2024/03/03 02:32:29;;;;;;;7.80;5.03;;;7.40;99.90;;;;;;5005058;28;20139;-66
2024/03/03 02:34:56;;;;;;;8.07;4.78;;;7.50;99.90;;;;;;5002817;28;20053;-67
2024/03/03 02:37:21;;;;;;;9.05;5.45;;;7.50;99.90;;;;;;5022832;28;20045;-67
2024/03/03 02:39:47;;;;;;;6.32;4.63;;;7.50;99.90;;;;;;5003426;28;20617;-67
2024/03/03 02:42:13;;;;;;;9.38;4.72;;;7.40;99.90;;;;;;5014672;28;20147;-67
2024/03/03 02:44:38;;;;;;;9.40;5.35;;;7.50;99.90;;;;;;5004636;28;20428;-66
2024/03/03 02:47:04;;;;;;;7.90;4.88;;;7.50;99.90;;;;;;5013957;28;20050;-67
2024/03/03 02:49:30;;;;;;;7.75;5.07;;;7.50;99.90;;;;;;5021659;28;20050;-66
2024/03/03 02:51:56;;;;;;;8.45;5.18;;;7.50;99.90;;;;;;4998646;28;20408;-67
2024/03/03 02:54:22;;;;;;;7.28;4.40;;;7.40;99.90;;;;;;5020011;28;20301;-67
2024/03/03 02:56:49;;;;;;;8.43;5.28;;;7.40;99.90;;;;;;5021509;28;20427;-67
2024/03/03 02:59:15;;;;;;;8.45;5.43;;;7.40;99.90;;;;;;4984754;28;20052;-67
2024/03/03 03:01:41;;;;;;;7.30;5.05;;;7.40;99.90;;;;;;5002565;28;20530;-67
2024/03/03 03:04:06;;;;;;;8.68;5.85;;;7.40;99.90;;;;;;5001906;28;20057;-67
2024/03/03 03:06:32;;;;;;;10.02;5.85;;;7.40;99.90;;;;;;5022963;28;20049;-67
2024/03/03 03:08:58;;;;;;;11.10;5.38;;;7.30;99.90;;;;;;5019288;28;20084;-67
2024/03/03 03:11:24;;;;;;;9.27;5.72;;;7.30;99.90;;;;;;5004802;28;20065;-67
2024/03/03 03:13:50;;;;;;;13.77;6.75;;;7.30;99.90;;;;;;5017945;28;20037;-67
2024/03/03 03:16:16;;;;;;;9.02;6.13;;;7.30;99.90;;;;;;4987925;28;20080;-68
2024/03/03 03:18:42;;;;;;;8.60;6.00;;;7.30;99.90;;;;;;5012610;28;20085;-66
2024/03/03 03:21:08;;;;;;;9.43;6.43;;;7.30;99.90;;;;;;4999752;28;20091;-67
2024/03/03 03:23:34;;;;;;;9.85;6.28;;;7.20;99.90;;;;;;5000630;28;20466;-67
2024/03/03 03:26:00;;;;;;;18.00;6.65;;;7.20;99.90;;;;;;5001440;28;20124;-67
2024/03/03 03:28:26;;;;;;;9.70;6.53;;;7.20;99.90;;;;;;5021862;28;20041;-67
2024/03/03 03:30:51;;;;;;;9.85;6.47;;;7.30;99.90;;;;;;5001791;28;20443;-66
2024/03/03 03:33:17;;;;;;;12.35;7.57;;;7.20;99.90;;;;;;5002559;28;20045;-67
2024/03/03 03:35:43;;;;;;;12.35;8.05;;;7.30;99.90;;;;;;4994556;28;20513;-67
2024/03/03 03:38:09;;;;;;;15.90;7.82;;;7.30;99.90;;;;;;5020936;28;20614;-67
2024/03/03 03:40:34;;;;;;;15.80;8.75;;;7.30;99.90;;;;;;5021258;28;20037;-66
2024/03/03 03:43:04;;;;;;;12.95;8.18;;;7.30;99.90;;;;;;5001427;28;20601;-67
2024/03/03 03:45:29;;;;;;;11.50;7.38;;;7.30;99.90;;;;;;5004390;28;20049;-67
2024/03/03 03:47:55;;;;;;;15.90;7.22;;;7.40;99.90;;;;;;5001257;28;20385;-67
2024/03/03 03:50:21;;;;;;;19.42;8.20;;;7.40;99.90;;;;;;5000210;28;20049;-67
2024/03/03 03:52:47;;;;;;;14.23;7.75;;;7.40;99.90;;;;;;4999719;28;20052;-67
2024/03/03 03:55:12;;;;;;;16.25;8.98;;;7.30;99.90;;;;;;5011861;28;20150;-67
2024/03/03 03:57:38;;;;;;;12.00;7.85;;;7.30;99.90;;;;;;4986781;28;20080;-67
2024/03/03 04:00:05;;;;;;;17.27;8.18;;;7.30;99.90;;;;;;4999486;28;20474;-67
2024/03/03 04:02:31;;;;;;;15.43;8.77;;;7.20;99.90;;;;;;5021523;28;20084;-67
2024/03/03 04:04:58;;;;;;;15.50;8.88;;;7.20;99.90;;;;;;4984147;28;20057;-66
2024/03/03 04:07:23;;;;;;;14.20;7.88;;;7.20;99.90;;;;;;5021605;28;20042;-67
2024/03/03 04:09:49;;;;;;;15.55;8.50;;;7.20;99.90;;;;;;5019155;28;20052;-67
2024/03/03 04:12:15;;;;;;;15.07;8.77;;;7.10;99.90;;;;;;5000225;28;20050;-67
2024/03/03 04:14:41;;;;;;;16.95;9.27;;;7.10;99.90;;;;;;5018826;28;20091;-67
2024/03/03 04:17:06;;;;;;;17.08;9.05;;;7.10;99.90;;;;;;5021109;28;20038;-67
2024/03/03 04:19:32;;;;;;;18.55;8.85;;;7.10;99.90;;;;;;5003471;28;20087;-66
2024/03/03 04:21:58;;;;;;;17.15;9.73;;;7.10;99.90;;;;;;5019953;28;20111;-67
2024/03/03 04:24:29;;;;;;;20.40;10.05;;;7.10;99.90;;;;;;5002250;28;20488;-67
2024/03/03 04:26:55;;;;;;;20.63;9.32;;;7.10;99.90;;;;;;4997328;28;20046;-67
2024/03/03 04:29:21;;;;;;;15.65;9.20;;;7.10;99.90;;;;;;5016902;28;20052;-67
2024/03/03 04:31:46;;;;;;;16.40;9.40;;;7.10;99.90;;;;;;4984807;28;20522;-67
2024/03/03 04:34:12;;;;;;;17.52;9.82;;;7.20;99.90;;;;;;4983469;28;20065;-67
2024/03/03 04:36:44;;;;;;;17.17;9.50;;;7.20;99.90;;;;;;4997915;28;20045;-66
2024/03/03 04:39:10;;;;;;;17.15;9.40;;;7.20;99.90;;;;;;4995913;28;20037;-67
2024/03/03 04:41:35;;;;;;;16.42;10.20;;;7.20;99.90;;;;;;5021493;28;20064;-67
2024/03/03 04:44:01;;;;;;;17.58;10.10;;;7.20;99.90;;;;;;5019084;28;20041;-67
2024/03/03 04:46:27;;;;;;;18.00;9.98;;;7.20;99.90;;;;;;5020252;28;20041;-67
2024/03/03 04:48:53;;;;;;;24.10;10.57;;;7.20;99.90;;;;;;5017851;28;20054;-67
2024/03/03 04:51:19;;;;;;;17.70;9.77;;;7.20;99.90;;;;;;4987491;28;20048;-67
2024/03/03 04:53:44;;;;;;;16.98;10.05;;;7.20;99.90;;;;;;5001672;28;20051;-67
2024/03/03 04:56:10;;;;;;;19.67;10.02;;;7.20;99.90;;;;;;5018456;28;20431;-67
2024/03/03 04:58:37;;;;;;;19.65;10.50;;;7.20;99.90;;;;;;5020531;28;20041;-67
2024/03/03 05:01:03;;;;;;;19.05;10.60;;;7.20;99.90;;;;;;5017688;28;20060;-67
2024/03/03 05:03:28;;;;;;;18.77;10.18;;;7.20;99.90;;;;;;5000644;28;20042;-67
2024/03/03 05:05:54;;;;;;;17.95;10.38;;;7.20;99.90;;;;;;4980490;28;20052;-67
2024/03/03 05:08:20;;;;;;;18.42;9.98;;;7.20;99.90;;;;;;4999828;28;20073;-66
2024/03/03 05:10:46;;;;;;;16.95;9.50;;;7.20;99.90;;;;;;5000553;28;20159;-67
2024/03/03 05:13:12;;;;;;;16.92;10.18;;;7.20;99.90;;;;;;5001034;28;20156;-67
2024/03/03 05:15:37;;;;;;;17.85;9.77;;;7.10;99.90;;;;;;5003235;28;20037;-67
2024/03/03 05:18:03;;;;;;;17.55;9.85;;;7.10;99.90;;;;;;5000603;28;20060;-67
2024/03/03 05:20:29;;;;;;;22.40;10.32;;;7.10;99.90;;;;;;5005137;28;20576;-67
2024/03/03 05:22:55;;;;;;;17.58;9.23;;;7.00;99.90;;;;;;5022289;28;20041;-67
2024/03/03 05:25:20;;;;;;;20.73;10.65;;;7.00;99.90;;;;;;5005527;28;20530;-67
2024/03/03 05:27:46;;;;;;;17.40;11.25;;;7.00;99.90;;;;;;5021483;28;20121;-67
2024/03/03 05:30:12;;;;;;;20.25;11.27;;;6.90;99.90;;;;;;5005764;28;20058;-67
2024/03/03 05:32:38;;;;;;;17.75;10.88;;;6.90;99.90;;;;;;5005658;28;20045;-66
2024/03/03 05:35:05;;;;;;;19.85;10.98;;;6.90;99.90;;;;;;5022354;28;20562;-67
2024/03/03 05:37:31;;;;;;;22.55;11.48;;;6.90;99.90;;;;;;4990588;28;20050;-67
2024/03/03 05:39:58;;;;;;;23.30;11.13;;;6.90;99.90;;;;;;4998722;28;20056;-67
2024/03/03 05:42:24;;;;;;;18.92;11.50;;;6.90;99.90;;;;;;5024480;28;20083;-66
2024/03/03 05:44:50;;;;;;;17.48;10.45;;;6.90;99.90;;;;;;4987053;28;20049;-67
2024/03/03 05:47:17;;;;;;;21.08;11.35;;;6.90;99.90;;;;;;5006047;28;20071;-67
2024/03/03 05:49:43;;;;;;;23.25;11.63;;;6.80;99.90;;;;;;4981962;28;20041;-67
2024/03/03 05:52:08;;;;;;;18.95;11.20;;;6.90;99.90;;;;;;5018273;28;20046;-67
2024/03/03 05:54:34;;;;;;;21.75;11.85;;;6.90;99.90;;;;;;5000837;28;20050;-67
2024/03/03 05:57:00;;;;;;;22.50;11.85;;;6.90;99.90;;;;;;5020077;28;20435;-67
2024/03/03 05:59:25;;;;;;;20.98;11.50;;;6.90;99.90;;;;;;5020008;28;20065;-67
2024/03/03 06:01:53;;;;;;;24.60;11.90;;;6.80;99.90;;;;;;5003857;28;20067;-67
2024/03/03 06:04:19;;;;;;;20.20;11.10;;;6.80;99.90;;;;;;4987639;28;20104;-67
2024/03/03 06:06:45;;;;;;;20.52;11.40;;;6.80;99.90;;;;;;5002258;28;20391;-67
2024/03/03 06:09:12;;;;;;;23.30;11.60;;;6.80;99.90;;;;;;5004243;28;20064;-67
2024/03/03 06:11:42;;;;;;;20.15;11.60;;;6.70;99.90;;;;;;4979303;28;20345;-67
2024/03/03 06:14:09;;;;;;;25.77;12.32;;;6.70;99.90;;;;;;5003787;28;20517;-67
2024/03/03 06:16:38;;;;;;;20.75;11.77;;;6.60;99.90;;;;;;5005844;28;20051;-66
2024/03/03 06:19:04;;;;;;;20.00;11.05;;;6.50;99.90;;;;;;5003832;28;20088;-67
2024/03/03 06:21:30;;;;;;;19.30;11.55;;;6.50;99.90;;;;;;4986609;28;20048;-67
2024/03/03 06:23:59;;;;;;;19.63;10.40;;;6.50;99.90;;;;;;5002380;28;20145;-67
2024/03/03 06:26:32;;;;;;;18.95;10.80;;;6.50;99.90;;;;;;5022470;28;20049;-67
2024/03/03 06:28:58;;;;;;;20.08;12.13;;;6.40;99.90;;;;;;5022717;28;20080;-67
2024/03/03 06:31:24;;;;;;;21.05;10.82;;;6.40;99.90;;;;;;5019936;28;20072;-67
2024/03/03 06:33:50;;;;;;;22.98;12.07;;;6.40;99.90;;;;;;5005722;28;20038;-67
2024/03/03 06:36:18;;;;;;;22.00;11.15;;;6.30;99.90;;;;;;5020669;28;20045;-67
2024/03/03 06:38:44;;;;;;;22.90;11.77;;;6.30;99.90;;;;;;5022929;28;20298;-67
2024/03/03 06:41:14;;;;;;;24.70;12.15;;;6.40;99.90;;;;;;5018503;28;20030;-67
2024/03/03 06:43:43;;;;;;;22.13;12.00;;;6.40;99.90;;;;;;5022753;28;20180;-66
2024/03/03 06:46:10;;;;;;;19.27;10.90;;;6.40;99.90;;;;;;5019123;28;20045;-67
2024/03/03 06:48:36;;;;;;;18.52;10.88;;;6.50;99.90;;;;;;5021193;28;20057;-67
2024/03/03 06:51:03;;;;;;;20.45;11.93;;;6.60;99.90;;;;;;5002802;28;20134;-67
2024/03/03 06:53:28;;;;;;;20.33;11.35;;;6.60;99.90;;;;;;5001520;28;20054;-67
2024/03/03 06:55:54;;;;;;;25.58;12.63;;;6.60;99.90;;;;;;5015924;28;20056;-67
2024/03/03 06:58:20;;;;;;;21.90;12.60;;;6.70;99.90;;;;;;5003008;28;20080;-67
2024/03/03 07:00:45;;;;;;;26.35;13.02;;;6.80;99.90;;;;;;5000579;28;20076;-67
2024/03/03 07:03:22;;;;;;;24.52;12.63;;;6.90;99.90;;;;;;5021328;28;20060;-67
2024/03/03 07:05:47;;;;;;;22.98;12.13;;;7.00;99.90;;;;;;4981364;28;20034;-67
2024/03/03 07:08:13;;;;;;;24.38;11.90;;;7.10;99.90;;;;;;5002384;28;20046;-67
2024/03/03 07:10:39;;;;;;;21.45;10.52;;;7.20;99.90;;;;;;5014673;28;20180;-67
2024/03/03 07:13:04;;;;;;;16.13;10.05;;;7.30;99.90;;;;;;5004788;28;20484;-67
2024/03/03 07:15:30;;;;;;;26.52;13.35;;;7.30;99.90;;;;;;5000701;28;20203;-67
2024/03/03 07:17:56;;;;;;;25.30;13.52;;;7.30;99.90;;;;;;5005106;28;20561;-67
2024/03/03 07:20:22;;;;;;;22.08;12.52;;;7.20;99.90;;;;;;5003186;28;20079;-67
2024/03/03 07:22:48;;;;;;;23.13;12.02;;;7.20;99.90;;;;;;4995980;28;20037;-67
2024/03/03 07:25:14;;;;;;;23.38;12.68;;;7.20;99.90;;;;;;4999293;28;20500;-67
2024/03/03 07:27:39;;;;;;;30.65;13.00;;;7.20;99.90;;;;;;5014132;28;20049;-67
2024/03/03 07:30:06;;;;;;;25.02;12.10;;;7.20;99.90;;;;;;5022211;28;21419;-67
2024/03/03 07:32:31;;;;;;;21.48;11.82;;;7.10;99.90;;;;;;5014436;28;20123;-67
2024/03/03 07:34:57;;;;;;;26.90;12.85;;;7.20;99.90;;;;;;4983697;28;20050;-67
2024/03/03 07:37:23;;;;;;;20.00;11.60;;;7.20;99.90;;;;;;5009783;28;20500;-67
2024/03/03 07:39:49;;;;;;;25.25;13.18;;;7.20;99.90;;;;;;5021626;28;20113;-67
2024/03/03 07:42:16;;;;;;;24.48;12.30;;;7.20;99.90;;;;;;5003139;28;20044;-67
2024/03/03 07:44:41;;;;;;;25.25;13.40;;;7.20;99.90;;;;;;5019999;28;20069;-67
2024/03/03 07:47:07;;;;;;;27.73;13.35;;;7.30;99.90;;;;;;5002455;28;20053;-67
2024/03/03 07:49:33;;;;;;;25.95;13.30;;;7.40;99.90;;;;;;5001207;28;20426;-67
2024/03/03 07:51:59;;;;;;;28.45;13.98;;;7.50;99.90;;;;;;5022053;28;20089;-67
2024/03/03 07:54:24;;;;;;;25.23;13.18;;;7.60;99.90;;;;;;5000313;28;20164;-67
2024/03/03 07:56:50;;;;;;;24.75;13.27;;;7.80;99.90;;;;;;5003641;28;20098;-67
2024/03/03 07:59:16;;;;;;;25.23;13.05;;;7.90;99.90;;;;;;5016547;28;20250;-67
2024/03/03 08:01:42;;;;;;;26.55;13.38;;;8.00;99.90;;;;;;5000982;28;20041;-67
2024/03/03 08:04:11;;;;;;;27.73;13.05;;;8.10;99.90;;;;;;4998964;28;20053;-67
2024/03/03 08:06:36;;;;;;;27.90;13.77;;;8.20;99.90;;;;;;5001296;28;20058;-67
2024/03/03 08:09:03;;;;;;;18.63;9.02;;;8.20;99.90;;;;;;5019721;28;20444;-68
2024/03/03 08:11:36;;;;;;;25.25;12.75;;;8.30;99.90;;;;;;4999585;28;20087;-67
2024/03/03 08:14:02;;;;;;;22.50;12.40;;;8.40;99.90;;;;;;5001546;28;20231;-67
2024/03/03 08:16:29;;;;;;;26.42;12.95;;;8.50;99.90;;;;;;5011772;28;20422;-67
2024/03/03 08:18:54;;;;;;;24.60;12.70;;;8.50;99.90;;;;;;5002930;28;20080;-67
2024/03/03 08:21:20;;;;;;;23.17;12.77;;;8.60;99.90;;;;;;5000291;28;20178;-67
2024/03/03 08:23:46;;;;;;;29.10;13.65;;;8.70;99.90;;;;;;4998968;28;20045;-67
2024/03/03 08:26:12;;;;;;;22.52;11.65;;;8.80;99.90;;;;;;5003406;28;20056;-67
2024/03/03 08:28:37;;;;;;;23.45;11.90;;;8.90;99.90;;;;;;5016380;28;20427;-67
2024/03/03 08:31:04;;;;;;;25.27;13.88;;;8.90;99.90;;;;;;5003149;28;20500;-67
2024/03/03 08:33:30;;;;;;;21.80;12.55;;;8.90;99.90;;;;;;5002110;28;20049;-67
2024/03/03 08:35:57;;;;;;;24.73;14.00;;;8.90;99.90;;;;;;4999155;28;20068;-67
2024/03/03 08:38:22;;;;;;;25.40;11.40;;;9.00;99.90;;;;;;5001617;28;20159;-67
2024/03/03 08:40:48;;;;;;;28.45;13.30;;;9.00;99.90;;;;;;5016502;28;20042;-67
2024/03/03 08:43:18;;;;;;;27.00;13.93;;;9.00;99.90;;;;;;5003791;28;20140;-67
2024/03/03 08:45:44;;;;;;;26.77;15.30;;;9.10;99.90;;;;;;5011531;28;20041;-67
2024/03/03 08:48:10;;;;;;;28.40;13.65;;;9.20;99.90;;;;;;5024231;28;20102;-67
2024/03/03 08:50:36;;;;;;;28.05;14.95;;;9.30;99.90;;;;;;5021241;28;20389;-67
2024/03/03 08:53:03;;;;;;;31.75;14.07;;;9.40;99.90;;;;;;4990763;28;20173;-68
2024/03/03 08:55:29;;;;;;;27.35;14.02;;;9.40;99.90;;;;;;5020651;28;20134;-67
2024/03/03 08:57:54;;;;;;;25.63;14.10;;;9.40;99.90;;;;;;5005998;28;20041;-67
2024/03/03 09:00:21;;;;;;;31.75;14.25;;;9.50;99.90;;;;;;5002766;28;20040;-67
2024/03/03 09:02:47;;;;;;;23.17;11.18;;;9.50;99.90;;;;;;5020463;28;20639;-67
2024/03/03 09:05:12;;;;;;;26.35;13.90;;;9.60;99.90;;;;;;5006208;28;20048;-67
2024/03/03 09:07:39;;;;;;;27.33;14.68;;;9.60;99.90;;;;;;5004824;28;20122;-67
2024/03/03 09:10:06;;;;;;;32.22;15.27;;;9.60;99.90;;;;;;5023864;28;20061;-67
2024/03/03 09:12:32;;;;;;;25.48;13.45;;;9.50;99.90;;;;;;5001616;28;20462;-66
2024/03/03 09:15:00;;;;;;;24.05;12.77;;;9.50;99.90;;;;;;5023127;28;20103;-66
2024/03/03 09:17:26;;;;;;;24.52;12.57;;;9.40;99.90;;;;;;5006203;28;20407;-67
2024/03/03 09:19:51;;;;;;;28.63;15.43;;;9.40;99.90;;;;;;5021984;28;20053;-66
2024/03/03 09:22:17;;;;;;;23.40;13.20;;;9.50;99.90;;;;;;5001240;28;20049;-66
2024/03/03 09:24:43;;;;;;;26.90;14.48;;;9.60;99.90;;;;;;4985589;28;20140;-66
2024/03/03 09:27:09;;;;;;;30.05;13.70;;;9.70;99.90;;;;;;4999492;28;20050;-66
2024/03/03 09:29:36;;;;;;;24.77;14.48;;;9.70;99.90;;;;;;5017409;28;20461;-66
2024/03/03 09:32:03;;;;;;;24.13;13.35;;;9.80;99.90;;;;;;5023662;28;20050;-67
2024/03/03 09:34:29;;;;;;;28.88;13.30;;;9.80;99.90;;;;;;5014044;28;20230;-67
2024/03/03 09:36:55;;;;;;;29.35;15.20;;;9.80;99.90;;;;;;5000081;28;20489;-66
2024/03/03 09:39:21;;;;;;;25.10;14.20;;;9.80;99.90;;;;;;5016736;28;20499;-66
2024/03/03 09:41:50;;;;;;;26.52;14.70;;;9.90;99.90;;;;;;4984598;28;20051;-66
2024/03/03 09:44:17;;;;;;;26.08;13.73;;;10.00;99.90;;;;;;5020682;28;20056;-66
2024/03/03 09:46:44;;;;;;;31.63;14.50;;;10.10;99.90;;;;;;4985847;28;20131;-66
2024/03/03 09:49:17;;;;;;;27.63;14.15;;;10.30;99.90;;;;;;5023046;28;20096;-66
2024/03/03 09:51:45;;;;;;;27.15;13.90;;;10.40;99.90;;;;;;5022438;28;20042;-66
2024/03/03 09:54:18;;;;;;;32.50;14.93;;;10.50;99.90;;;;;;5002631;28;20408;-66
2024/03/03 09:56:46;;;;;;;29.55;15.05;;;10.70;99.90;;;;;;5005608;28;20049;-66
2024/03/03 09:59:14;;;;;;;29.25;14.18;;;10.90;99.90;;;;;;5019088;28;20265;-66
2024/03/03 10:02:02;;;;;;;30.35;15.30;;;11.10;99.90;;;;;;5021998;28;20044;-66
2024/03/03 10:04:29;;;;;;;25.92;15.20;;;11.20;99.90;;;;;;5015903;28;20426;-66
2024/03/03 10:06:55;;;;;;;28.70;15.60;;;11.40;99.90;;;;;;5000905;28;20038;-66
2024/03/03 10:09:23;;;;;;;25.83;14.93;;;11.50;99.90;;;;;;5006040;28;20568;-66
2024/03/03 10:11:50;;;;;;;32.28;16.90;;;11.50;99.90;;;;;;5018503;28;20048;-66
2024/03/03 10:14:19;;;;;;;26.25;15.07;;;11.50;99.90;;;;;;5021474;28;20049;-66
2024/03/03 10:16:44;;;;;;;28.30;14.60;;;11.40;99.90;;;;;;5020980;28;20383;-66
2024/03/03 10:19:10;;;;;;;25.17;13.52;;;11.30;99.90;;;;;;5004927;28;20049;-67
2024/03/03 10:21:38;;;;;;;28.38;15.00;;;11.20;99.90;;;;;;5015154;28;20056;-66
2024/03/03 10:24:23;;;;;;;28.70;14.18;;;11.10;99.90;;;;;;5023128;28;20045;-66
2024/03/03 10:26:50;;;;;;;22.63;13.45;;;11.20;99.90;;;;;;5019114;28;20052;-66
2024/03/03 10:29:20;;;;;;;23.90;13.18;;;11.20;99.90;;;;;;5020415;28;20071;-66
2024/03/03 10:31:47;;;;;;;22.88;13.15;;;11.20;99.90;;;;;;5023193;28;20384;-66
2024/03/03 10:34:14;;;;;;;23.05;12.82;;;11.20;99.90;;;;;;5020413;28;20041;-66
2024/03/03 10:36:40;;;;;;;20.45;10.35;;;11.40;99.90;;;;;;5001250;28;20044;-66
2024/03/03 10:39:09;;;;;;;26.83;14.48;;;11.60;99.90;;;;;;5021607;28;20152;-66
2024/03/03 10:41:35;;;;;;;27.52;14.05;;;11.70;99.90;;;;;;4994331;28;20102;-66
2024/03/03 10:44:02;;;;;;;23.40;14.82;;;11.60;99.90;;;;;;5004776;28;20144;-66
2024/03/03 10:46:28;;;;;;;25.92;15.10;;;11.60;99.90;;;;;;4985323;28;20078;-66
2024/03/03 10:48:55;;;;;;;25.88;14.18;;;11.60;99.90;;;;;;4994429;28;20076;-66
2024/03/03 10:51:21;;;;;;;24.08;13.50;;;11.50;99.90;;;;;;5019775;28;20525;-66
2024/03/03 10:53:52;;;;;;;24.45;14.55;;;11.60;99.90;;;;;;5004220;28;20365;-66
2024/03/03 10:56:19;;;;;;;21.15;10.07;;;11.60;99.90;;;;;;5017831;28;20247;-66
2024/03/03 10:58:48;;;;;;;28.80;15.02;;;11.60;99.90;;;;;;5004079;28;20408;-66
2024/03/03 11:01:15;;;;;;;29.23;15.73;;;11.60;99.90;;;;;;5003067;28;20048;-66
2024/03/03 11:03:46;;;;;;;19.65;12.50;;;11.70;99.90;;;;;;4995522;28;20137;-66
2024/03/03 11:06:12;;;;;;;23.45;13.40;;;11.90;99.90;;;;;;5021785;28;20335;-66
2024/03/03 11:08:39;;;;;;;21.63;11.93;;;12.00;99.90;;;;;;5018571;28;20061;-66
2024/03/03 11:11:09;;;;;;;31.98;14.25;;;12.10;99.90;;;;;;5021676;28;20768;-66
2024/03/03 11:13:50;;;;;;;21.70;12.52;;;12.20;99.90;;;;;;4996365;28;20053;-66
2024/03/03 11:16:17;;;;;;;22.85;11.25;;;12.20;99.90;;;;;;5019191;28;20107;-66
2024/03/03 11:18:48;;;;;;;23.58;13.35;;;12.20;99.90;;;;;;5003254;28;20076;-66
2024/03/03 11:21:18;;;;;;;30.77;14.23;;;12.20;99.90;;;;;;5019352;28;20042;-64
2024/03/03 11:23:48;;;;;;;26.90;13.85;;;12.20;99.90;;;;;;5000750;28;20053;-65
2024/03/03 11:26:27;;;;;;;19.02;12.52;;;12.30;99.90;;;;;;5019579;28;20053;-66
2024/03/03 11:28:59;;;;;;;19.67;11.75;;;12.30;99.90;;;;;;5020946;28;20202;-66
2024/03/03 11:31:26;;;;;;;22.63;11.73;;;12.40;99.90;;;;;;5020966;28;20048;-66
2024/03/03 11:33:53;;;;;;;23.45;13.32;;;12.40;99.90;;;;;;4982587;28;20114;-66
2024/03/03 11:36:21;;;;;;;27.10;12.63;;;12.40;99.90;;;;;;5003311;28;20045;-66
2024/03/03 11:38:47;;;;;;;23.63;13.05;;;12.50;99.90;;;;;;5014939;28;20398;-66
2024/03/03 11:41:18;;;;;;;20.95;12.82;;;12.70;99.90;;;;;;5001315;28;20079;-66
2024/03/03 11:43:44;;;;;;;25.50;12.57;;;12.90;99.90;;;;;;5014753;28;20068;-66
2024/03/03 11:46:36;;;;;;;20.00;12.02;;;13.00;99.90;;;;;;4987240;28;20530;-66
2024/03/03 11:49:02;;;;;;;22.35;11.85;;;13.10;99.90;;;;;;5021306;28;20041;-66
2024/03/03 11:51:29;;;;;;;17.58;10.90;;;13.10;99.90;;;;;;5018747;28;20098;-66
2024/03/03 11:54:03;;;;;;;20.55;11.80;;;13.10;99.90;;;;;;5022257;28;20050;-66
2024/03/03 11:56:32;;;;;;;20.88;11.40;;;13.10;99.90;;;;;;5016642;28;20416;-66
2024/03/03 11:59:02;;;;;;;16.45;10.85;;;13.00;99.90;;;;;;5020591;28;20048;-66
2024/03/03 12:01:40;;;;;;;20.35;11.07;;;13.10;99.90;;;;;;5018400;28;20139;-66
2024/03/03 12:04:05;;;;;;;20.17;11.07;;;13.10;99.90;;;;;;5016967;28;20108;-66
2024/03/03 12:06:31;;;;;;;23.00;11.38;;;13.00;99.90;;;;;;4987117;28;20058;-66
2024/03/03 12:09:02;;;;;;;16.42;10.13;;;13.00;99.90;;;;;;5016955;28;20045;-66
2024/03/03 12:11:30;;;;;;;21.92;9.85;;;13.10;99.90;;;;;;4993804;28;20052;-66
2024/03/03 12:13:59;;;;;;;17.17;9.88;;;13.20;99.90;;;;;;5001675;28;20061;-66
2024/03/03 12:16:25;;;;;;;15.48;10.05;;;13.30;99.90;;;;;;4999349;28;20049;-67
2024/03/03 12:18:51;;;;;;;14.55;9.63;;;13.20;99.90;;;;;;5021334;28;20115;-66
2024/03/03 12:21:19;;;;;;;18.73;9.98;;;13.20;99.90;;;;;;5001175;28;20058;-67
2024/03/03 12:23:45;;;;;;;21.50;11.18;;;13.20;99.90;;;;;;5007118;28;20390;-66
2024/03/03 12:26:11;;;;;;;14.68;9.07;;;13.20;99.90;;;;;;5023233;28;20041;-66
2024/03/03 12:28:38;;;;;;;13.05;9.50;;;13.10;99.90;;;;;;5022332;28;20128;-66
2024/03/03 12:31:04;;;;;;;14.02;8.98;;;13.10;99.90;;;;;;5021800;28;20423;-66
2024/03/03 12:33:29;;;;;;;18.00;10.43;;;13.10;99.90;;;;;;5022784;28;20372;-66
2024/03/03 12:35:56;;;;;;;19.38;10.93;;;13.30;99.90;;;;;;5024612;28;20127;-66
2024/03/03 12:38:22;;;;;;;21.95;10.27;;;13.30;99.90;;;;;;5004875;28;20081;-66